Terminal Aerodrome Forecast
Issued by NWS

Home | Current Version | Previous Version | Text Only | Print | Product List | Glossary On
Versions: 1 2 3 4 5 6 7 8 9 10 11 12
854
FTUS45 KTFX 241726
TAFBZN
TAF
KBZN 241726Z 2418/2518 21009KT P6SM FEW200
     FM242100 21014G24KT P6SM BKN200
     FM250200 18009KT P6SM OVC150
     FM250900 24006KT P6SM VCSH OVC050
     FM251200 28008KT P6SM -SHRASN OVC030=

USA.gov is the U.S. government's official web portal to all federal, state and local government web resources and services.